sensor_id;sensor_type;location;lat;lon;timestamp;pressure;altitude;pressure_sealevel;temperature;humidity
65280;BME280;51878;55.748;48.742;2024-03-07T00:04:46;99694.31;;;-6.95;62.44
65280;BME280;51878;55.748;48.742;2024-03-07T00:09:48;99718.72;;;-6.90;63.29
65280;BME280;51878;55.748;48.742;2024-03-07T00:14:55;99664.28;;;-7.10;62.80
65280;BME280;51878;55.748;48.742;2024-03-07T00:19:58;99699.47;;;-6.92;62.99
65280;BME280;51878;55.748;48.742;2024-03-07T00:25:00;99681.03;;;-6.92;63.11
65280;BME280;51878;55.748;48.742;2024-03-07T00:30:03;99665.50;;;-6.98;63.52
65280;BME280;51878;55.748;48.742;2024-03-07T00:35:08;99676.16;;;-6.82;63.92
65280;BME280;51878;55.748;48.742;2024-03-07T00:40:13;99673.19;;;-6.74;63.32
65280;BME280;51878;55.748;48.742;2024-03-07T00:45:15;99648.53;;;-6.92;63.51
65280;BME280;51878;55.748;48.742;2024-03-07T00:50:17;99632.09;;;-6.97;62.73
65280;BME280;51878;55.748;48.742;2024-03-07T00:55:19;99685.09;;;-6.66;62.86
65280;BME280;51878;55.748;48.742;2024-03-07T01:00:21;99632.03;;;-6.96;62.76
65280;BME280;51878;55.748;48.742;2024-03-07T01:05:24;99670.81;;;-6.61;63.46
65280;BME280;51878;55.748;48.742;2024-03-07T01:10:26;99689.91;;;-6.56;63.48
65280;BME280;51878;55.748;48.742;2024-03-07T01:15:31;99665.84;;;-6.68;63.90
65280;BME280;51878;55.748;48.742;2024-03-07T01:20:34;99626.75;;;-6.96;65.15
65280;BME280;51878;55.748;48.742;2024-03-07T01:25:37;99590.44;;;-7.08;65.79
65280;BME280;51878;55.748;48.742;2024-03-07T01:30:39;99673.25;;;-6.57;65.36
65280;BME280;51878;55.748;48.742;2024-03-07T01:35:41;99629.69;;;-6.83;64.91
65280;BME280;51878;55.748;48.742;2024-03-07T01:40:44;99633.38;;;-6.87;65.27
65280;BME280;51878;55.748;48.742;2024-03-07T01:45:47;99622.34;;;-6.95;65.49
65280;BME280;51878;55.748;48.742;2024-03-07T01:50:49;99617.91;;;-6.95;66.46
65280;BME280;51878;55.748;48.742;2024-03-07T01:55:52;99620.47;;;-6.93;67.05
65280;BME280;51878;55.748;48.742;2024-03-07T02:00:55;99654.66;;;-6.73;68.01
65280;BME280;51878;55.748;48.742;2024-03-07T02:05:58;99628.94;;;-6.87;68.56
65280;BME280;51878;55.748;48.742;2024-03-07T02:11:00;99635.44;;;-6.94;69.40
65280;BME280;51878;55.748;48.742;2024-03-07T02:16:03;99634.03;;;-7.01;69.77
65280;BME280;51878;55.748;48.742;2024-03-07T02:21:09;99660.34;;;-6.82;70.02
65280;BME280;51878;55.748;48.742;2024-03-07T02:26:13;99661.31;;;-6.83;70.24
65280;BME280;51878;55.748;48.742;2024-03-07T02:31:15;99662.94;;;-6.80;70.67
65280;BME280;51878;55.748;48.742;2024-03-07T02:36:18;99662.31;;;-6.86;71.42
65280;BME280;51878;55.748;48.742;2024-03-07T02:41:21;99658.94;;;-6.89;71.63
65280;BME280;51878;55.748;48.742;2024-03-07T02:46:23;99635.88;;;-7.03;72.05
65280;BME280;51878;55.748;48.742;2024-03-07T02:51:25;99612.78;;;-7.17;71.96
65280;BME280;51878;55.748;48.742;2024-03-07T02:56:27;99546.16;;;-7.57;72.38
65280;BME280;51878;55.748;48.742;2024-03-07T03:01:30;99596.19;;;-7.19;72.56
65280;BME280;51878;55.748;48.742;2024-03-07T03:06:32;99651.75;;;-6.86;72.59
65280;BME280;51878;55.748;48.742;2024-03-07T03:11:34;99654.97;;;-6.79;72.65
65280;BME280;51878;55.748;48.742;2024-03-07T03:16:41;99665.91;;;-6.69;72.79
65280;BME280;51878;55.748;48.742;2024-03-07T03:21:48;99630.69;;;-6.86;72.94
65280;BME280;51878;55.748;48.742;2024-03-07T03:26:50;99654.81;;;-6.76;73.74
65280;BME280;51878;55.748;48.742;2024-03-07T03:31:52;99658.28;;;-6.75;72.99
65280;BME280;51878;55.748;48.742;2024-03-07T03:36:54;99605.06;;;-7.01;72.62
65280;BME280;51878;55.748;48.742;2024-03-07T03:41:57;99584.47;;;-7.12;72.63
65280;BME280;51878;55.748;48.742;2024-03-07T03:46:59;99617.69;;;-6.90;72.75
65280;BME280;51878;55.748;48.742;2024-03-07T03:52:06;99588.69;;;-7.08;72.09
65280;BME280;51878;55.748;48.742;2024-03-07T03:57:08;99619.06;;;-7.00;71.06
65280;BME280;51878;55.748;48.742;2024-03-07T04:02:10;99648.75;;;-6.78;71.61
65280;BME280;51878;55.748;48.742;2024-03-07T04:07:13;99643.19;;;-6.72;70.52
65280;BME280;51878;55.748;48.742;2024-03-07T04:12:15;99641.00;;;-6.81;68.45
65280;BME280;51878;55.748;48.742;2024-03-07T04:17:17;99618.63;;;-6.91;68.24
65280;BME280;51878;55.748;48.742;2024-03-07T04:22:19;99649.88;;;-6.83;69.03
65280;BME280;51878;55.748;48.742;2024-03-07T04:27:22;99658.44;;;-6.78;69.08
65280;BME280;51878;55.748;48.742;2024-03-07T04:32:24;99589.47;;;-7.24;68.82
65280;BME280;51878;55.748;48.742;2024-03-07T04:37:26;99606.91;;;-7.03;69.10
65280;BME280;51878;55.748;48.742;2024-03-07T04:42:32;99647.41;;;-6.68;70.62
65280;BME280;51878;55.748;48.742;2024-03-07T04:47:34;99619.66;;;-6.57;70.13
65280;BME280;51878;55.748;48.742;2024-03-07T04:52:37;99652.97;;;-6.20;67.50
65280;BME280;51878;55.748;48.742;2024-03-07T04:57:40;99616.03;;;-6.37;65.51
65280;BME280;51878;55.748;48.742;2024-03-07T05:02:45;99651.06;;;-6.16;63.78
65280;BME280;51878;55.748;48.742;2024-03-07T05:07:48;99662.06;;;-6.26;64.18
65280;BME280;51878;55.748;48.742;2024-03-07T05:12:52;99643.50;;;-6.24;65.11
65280;BME280;51878;55.748;48.742;2024-03-07T05:17:55;99609.09;;;-6.21;64.25
65280;BME280;51878;55.748;48.742;2024-03-07T05:22:58;99655.38;;;-5.63;63.13
65280;BME280;51878;55.748;48.742;2024-03-07T05:28:01;99510.78;;;-6.25;61.45
65280;BME280;51878;55.748;48.742;2024-03-07T05:33:04;99586.50;;;-5.76;60.13
65280;BME280;51878;55.748;48.742;2024-03-07T05:38:07;99602.72;;;-5.66;60.65
65280;BME280;51878;55.748;48.742;2024-03-07T05:43:09;99636.03;;;-5.30;58.89
65280;BME280;51878;55.748;48.742;2024-03-07T05:48:15;99632.50;;;-5.13;58.72
65280;BME280;51878;55.748;48.742;2024-03-07T05:53:20;99582.25;;;-5.29;57.84
65280;BME280;51878;55.748;48.742;2024-03-07T05:58:23;99620.16;;;-4.97;58.15
65280;BME280;51878;55.748;48.742;2024-03-07T06:03:25;99626.97;;;-4.61;58.13
65280;BME280;51878;55.748;48.742;2024-03-07T06:08:27;99627.72;;;-4.27;56.69
65280;BME280;51878;55.748;48.742;2024-03-07T06:13:30;99476.47;;;-5.12;56.33
65280;BME280;51878;55.748;48.742;2024-03-07T06:18:32;99567.47;;;-4.38;55.00
65280;BME280;51878;55.748;48.742;2024-03-07T06:23:35;99584.34;;;-4.25;55.27
65280;BME280;51878;55.748;48.742;2024-03-07T06:28:38;99613.69;;;-3.99;55.58
65280;BME280;51878;55.748;48.742;2024-03-07T06:33:41;99598.28;;;-4.07;54.25
65280;BME280;51878;55.748;48.742;2024-03-07T06:38:43;99582.47;;;-3.49;53.84
65280;BME280;51878;55.748;48.742;2024-03-07T06:43:46;99591.19;;;-3.19;53.10
65280;BME280;51878;55.748;48.742;2024-03-07T06:48:48;99490.41;;;-4.03;53.73
65280;BME280;51878;55.748;48.742;2024-03-07T06:53:51;99546.19;;;-3.20;53.20
65280;BME280;51878;55.748;48.742;2024-03-07T06:58:53;99593.63;;;-3.01;51.86
65280;BME280;51878;55.748;48.742;2024-03-07T07:03:55;99570.69;;;-3.02;52.00
65280;BME280;51878;55.748;48.742;2024-03-07T07:09:00;99495.03;;;-3.49;52.65
65280;BME280;51878;55.748;48.742;2024-03-07T07:14:05;99569.56;;;-2.98;52.75
65280;BME280;51878;55.748;48.742;2024-03-07T07:19:07;99505.09;;;-3.13;53.19
65280;BME280;51878;55.748;48.742;2024-03-07T07:24:10;99554.66;;;-2.86;51.91
65280;BME280;51878;55.748;48.742;2024-03-07T07:29:12;99559.66;;;-2.55;52.17
65280;BME280;51878;55.748;48.742;2024-03-07T07:34:15;99552.81;;;-2.72;51.88
65280;BME280;51878;55.748;48.742;2024-03-07T07:39:17;99560.81;;;-2.59;52.70
65280;BME280;51878;55.748;48.742;2024-03-07T07:44:19;99515.03;;;-2.75;51.11
65280;BME280;51878;55.748;48.742;2024-03-07T07:49:21;99545.03;;;-2.47;51.45
65280;BME280;51878;55.748;48.742;2024-03-07T07:54:23;99545.22;;;-2.11;51.53
65280;BME280;51878;55.748;48.742;2024-03-07T07:59:26;99550.25;;;-1.93;51.00
65280;BME280;51878;55.748;48.742;2024-03-07T08:04:28;99535.50;;;-1.84;51.08
65280;BME280;51878;55.748;48.742;2024-03-07T08:09:31;99484.13;;;-2.23;51.78
65280;BME280;51878;55.748;48.742;2024-03-07T08:14:33;99391.97;;;-2.60;49.57
65280;BME280;51878;55.748;48.742;2024-03-07T08:19:36;99519.72;;;-1.36;48.22
65280;BME280;51878;55.748;48.742;2024-03-07T08:24:38;99498.31;;;-1.35;49.29
65280;BME280;51878;55.748;48.742;2024-03-07T08:29:40;99524.56;;;-1.17;47.99
65280;BME280;51878;55.748;48.742;2024-03-07T08:34:42;99507.25;;;-1.23;49.29
65280;BME280;51878;55.748;48.742;2024-03-07T08:39:45;99522.94;;;-1.07;48.23
65280;BME280;51878;55.748;48.742;2024-03-07T08:44:47;99516.59;;;-1.17;50.01
65280;BME280;51878;55.748;48.742;2024-03-07T08:49:49;99461.31;;;-1.01;48.92
65280;BME280;51878;55.748;48.742;2024-03-07T08:54:53;99483.06;;;-0.83;49.13
65280;BME280;51878;55.748;48.742;2024-03-07T08:59:56;99488.09;;;-0.91;50.64
65280;BME280;51878;55.748;48.742;2024-03-07T09:04:58;99432.56;;;-1.20;51.87
65280;BME280;51878;55.748;48.742;2024-03-07T09:10:00;99464.97;;;-0.67;49.22
65280;BME280;51878;55.748;48.742;2024-03-07T09:15:04;99308.47;;;-0.97;48.77
65280;BME280;51878;55.748;48.742;2024-03-07T09:20:07;99467.72;;;0.03;49.58
65280;BME280;51878;55.748;48.742;2024-03-07T09:25:16;99459.47;;;0.17;48.68
65280;BME280;51878;55.748;48.742;2024-03-07T09:30:19;99441.78;;;0.38;47.65
65280;BME280;51878;55.748;48.742;2024-03-07T09:35:26;99433.66;;;-0.16;48.76
65280;BME280;51878;55.748;48.742;2024-03-07T09:40:28;99462.13;;;-0.06;48.62
65280;BME280;51878;55.748;48.742;2024-03-07T09:45:33;99432.09;;;0.04;49.76
65280;BME280;51878;55.748;48.742;2024-03-07T09:50:36;99424.56;;;0.09;47.56
65280;BME280;51878;55.748;48.742;2024-03-07T09:55:38;99411.38;;;0.18;47.43
65280;BME280;51878;55.748;48.742;2024-03-07T10:00:41;99388.59;;;0.26;47.05
65280;BME280;51878;55.748;48.742;2024-03-07T10:05:43;99378.78;;;0.04;48.33
65280;BME280;51878;55.748;48.742;2024-03-07T10:10:46;99418.91;;;0.25;49.59
65280;BME280;51878;55.748;48.742;2024-03-07T10:15:49;99399.88;;;0.07;48.55
65280;BME280;51878;55.748;48.742;2024-03-07T10:20:53;99410.16;;;0.34;49.08
65280;BME280;51878;55.748;48.742;2024-03-07T10:25:56;99422.16;;;0.39;49.11
65280;BME280;51878;55.748;48.742;2024-03-07T10:30:59;99356.25;;;0.08;48.37
65280;BME280;51878;55.748;48.742;2024-03-07T10:36:02;99358.94;;;0.08;48.70
65280;BME280;51878;55.748;48.742;2024-03-07T10:41:06;99371.00;;;0.34;48.40
65280;BME280;51878;55.748;48.742;2024-03-07T10:46:11;99404.91;;;0.55;49.15
65280;BME280;51878;55.748;48.742;2024-03-07T10:51:21;99396.88;;;0.77;48.52
65280;BME280;51878;55.748;48.742;2024-03-07T10:56:58;99410.22;;;0.77;47.12
65280;BME280;51878;55.748;48.742;2024-03-07T11:07:06;99386.06;;;0.13;48.81
65280;BME280;51878;55.748;48.742;2024-03-07T11:12:09;99375.75;;;-0.37;48.75
65280;BME280;51878;55.748;48.742;2024-03-07T11:17:14;99311.00;;;-1.31;50.53
65280;BME280;51878;55.748;48.742;2024-03-07T11:22:30;99337.50;;;-1.53;51.27
65280;BME280;51878;55.748;48.742;2024-03-07T11:27:37;99382.91;;;-1.56;51.51
65280;BME280;51878;55.748;48.742;2024-03-07T11:32:44;99364.63;;;-1.98;51.24
65280;BME280;51878;55.748;48.742;2024-03-07T11:37:47;99362.09;;;-2.12;51.05
65280;BME280;51878;55.748;48.742;2024-03-07T11:42:54;99260.56;;;-2.78;52.46
65280;BME280;51878;55.748;48.742;2024-03-07T11:48:02;99222.28;;;-3.13;52.41
65280;BME280;51878;55.748;48.742;2024-03-07T11:53:13;99348.22;;;-2.41;53.64
65280;BME280;51878;55.748;48.742;2024-03-07T11:58:17;99339.50;;;-2.31;52.51
65280;BME280;51878;55.748;48.742;2024-03-07T12:03:21;99305.44;;;-2.50;54.01
65280;BME280;51878;55.748;48.742;2024-03-07T12:08:24;99275.31;;;-2.61;54.39
65280;BME280;51878;55.748;48.742;2024-03-07T12:13:28;99322.59;;;-2.30;55.84
65280;BME280;51878;55.748;48.742;2024-03-07T12:18:30;99267.34;;;-2.61;56.80
65280;BME280;51878;55.748;48.742;2024-03-07T12:23:33;99292.25;;;-2.38;55.29
65280;BME280;51878;55.748;48.742;2024-03-07T12:28:35;99272.09;;;-2.54;55.80
65280;BME280;51878;55.748;48.742;2024-03-07T12:33:40;99316.53;;;-2.32;56.24
65280;BME280;51878;55.748;48.742;2024-03-07T12:38:44;99219.59;;;-2.87;56.44
65280;BME280;51878;55.748;48.742;2024-03-07T12:43:49;99206.06;;;-2.95;57.53
65280;BME280;51878;55.748;48.742;2024-03-07T12:48:51;99219.28;;;-2.82;58.22
65280;BME280;51878;55.748;48.742;2024-03-07T12:53:54;99261.19;;;-2.62;58.38
65280;BME280;51878;55.748;48.742;2024-03-07T12:58:56;99267.66;;;-2.53;59.11
65280;BME280;51878;55.748;48.742;2024-03-07T13:04:02;99277.09;;;-2.49;59.78
65280;BME280;51878;55.748;48.742;2024-03-07T13:09:04;99246.22;;;-2.63;58.91
65280;BME280;51878;55.748;48.742;2024-03-07T13:14:13;99200.84;;;-2.84;60.48
65280;BME280;51878;55.748;48.742;2024-03-07T13:19:16;99246.44;;;-2.66;60.47
65280;BME280;51878;55.748;48.742;2024-03-07T13:24:23;99251.31;;;-2.60;60.58
65280;BME280;51878;55.748;48.742;2024-03-07T13:29:26;99247.09;;;-2.62;62.23
65280;BME280;51878;55.748;48.742;2024-03-07T13:34:30;99191.91;;;-2.96;62.42
65280;BME280;51878;55.748;48.742;2024-03-07T13:39:32;99241.34;;;-2.69;63.08
65280;BME280;51878;55.748;48.742;2024-03-07T13:44:34;99241.03;;;-2.64;64.17
65280;BME280;51878;55.748;48.742;2024-03-07T13:49:37;99236.47;;;-2.62;64.12
65280;BME280;51878;55.748;48.742;2024-03-07T13:54:40;99217.69;;;-2.72;63.18
65280;BME280;51878;55.748;48.742;2024-03-07T14:11:01;99183.97;;;-2.96;63.32
65280;BME280;51878;55.748;48.742;2024-03-07T14:32:24;99140.75;;;-3.22;64.93
65280;BME280;51878;55.748;48.742;2024-03-07T14:38:22;99179.53;;;-3.08;66.03
65280;BME280;51878;55.748;48.742;2024-03-07T14:43:03;99165.03;;;-3.15;66.87
65280;BME280;51878;55.748;48.742;2024-03-07T14:48:07;99154.94;;;-3.23;65.98
65280;BME280;51878;55.748;48.742;2024-03-07T14:53:12;99137.44;;;-3.25;66.58
65280;BME280;51878;55.748;48.742;2024-03-07T14:58:19;99155.69;;;-3.21;66.27
65280;BME280;51878;55.748;48.742;2024-03-07T15:03:22;99165.75;;;-3.26;65.75
65280;BME280;51878;55.748;48.742;2024-03-07T15:08:24;99158.75;;;-3.27;65.81
65280;BME280;51878;55.748;48.742;2024-03-07T15:13:32;99086.78;;;-3.72;66.05
65280;BME280;51878;55.748;48.742;2024-03-07T15:18:36;99150.78;;;-3.40;67.45
65280;BME280;51878;55.748;48.742;2024-03-07T15:23:38;99133.72;;;-3.48;68.24
65280;BME280;51878;55.748;48.742;2024-03-07T15:28:41;99145.72;;;-3.43;68.93
65280;BME280;51878;55.748;48.742;2024-03-07T15:33:43;99107.44;;;-3.64;70.63
65280;BME280;51878;55.748;48.742;2024-03-07T15:38:46;99102.88;;;-3.75;70.26
65280;BME280;51878;55.748;48.742;2024-03-07T15:43:48;99116.69;;;-3.70;71.92
65280;BME280;51878;55.748;48.742;2024-03-07T15:48:50;99150.28;;;-3.45;72.23
65280;BME280;51878;55.748;48.742;2024-03-07T15:53:53;99129.72;;;-3.54;72.15
65280;BME280;51878;55.748;48.742;2024-03-07T15:58:56;99135.53;;;-3.62;71.93
65280;BME280;51878;55.748;48.742;2024-03-07T16:03:58;99131.94;;;-3.61;71.89
65280;BME280;51878;55.748;48.742;2024-03-07T16:09:00;99126.53;;;-3.72;71.39
65280;BME280;51878;55.748;48.742;2024-03-07T16:14:02;99122.06;;;-3.71;72.49
65280;BME280;51878;55.748;48.742;2024-03-07T16:19:05;99105.22;;;-3.70;72.14
65280;BME280;51878;55.748;48.742;2024-03-07T16:24:07;99088.06;;;-3.78;72.77
65280;BME280;51878;55.748;48.742;2024-03-07T16:29:10;99066.66;;;-4.00;73.38
65280;BME280;51878;55.748;48.742;2024-03-07T16:34:13;99100.22;;;-3.75;72.31
65280;BME280;51878;55.748;48.742;2024-03-07T16:39:16;99095.59;;;-3.71;73.18
65280;BME280;51878;55.748;48.742;2024-03-07T16:44:18;99084.56;;;-3.78;73.61
65280;BME280;51878;55.748;48.742;2024-03-07T16:49:24;99056.06;;;-4.00;73.36
65280;BME280;51878;55.748;48.742;2024-03-07T16:54:28;99074.59;;;-3.87;74.01
65280;BME280;51878;55.748;48.742;2024-03-07T16:59:30;99039.44;;;-4.02;75.01
65280;BME280;51878;55.748;48.742;2024-03-07T17:04:33;99077.88;;;-3.84;75.42
65280;BME280;51878;55.748;48.742;2024-03-07T17:09:36;99076.09;;;-3.96;77.08
65280;BME280;51878;55.748;48.742;2024-03-07T17:14:38;98955.53;;;-4.66;77.89
65280;BME280;51878;55.748;48.742;2024-03-07T17:19:45;99058.69;;;-4.00;78.59
65280;BME280;51878;55.748;48.742;2024-03-07T17:24:49;99068.31;;;-3.99;80.02
65280;BME280;51878;55.748;48.742;2024-03-07T17:29:51;99032.75;;;-4.21;79.80
65280;BME280;51878;55.748;48.742;2024-03-07T17:34:54;99055.41;;;-4.04;79.48
65280;BME280;51878;55.748;48.742;2024-03-07T17:39:57;99051.06;;;-4.05;79.61
65280;BME280;51878;55.748;48.742;2024-03-07T17:44:59;99045.44;;;-4.13;79.33
65280;BME280;51878;55.748;48.742;2024-03-07T17:50:02;99045.25;;;-4.10;80.28
65280;BME280;51878;55.748;48.742;2024-03-07T17:55:07;99007.09;;;-4.33;79.34
65280;BME280;51878;55.748;48.742;2024-03-07T18:00:14;99036.56;;;-4.12;80.39
65280;BME280;51878;55.748;48.742;2024-03-07T18:05:29;99036.13;;;-4.06;79.76
65280;BME280;51878;55.748;48.742;2024-03-07T18:10:32;99025.66;;;-4.20;80.00
65280;BME280;51878;55.748;48.742;2024-03-07T18:15:36;99020.03;;;-4.16;78.86
65280;BME280;51878;55.748;48.742;2024-03-07T18:20:41;98971.84;;;-4.46;78.66
65280;BME280;51878;55.748;48.742;2024-03-07T18:25:46;98986.91;;;-4.34;78.14
65280;BME280;51878;55.748;48.742;2024-03-07T18:30:50;98997.78;;;-4.26;77.47
65280;BME280;51878;55.748;48.742;2024-03-07T18:35:53;98960.34;;;-4.45;77.55
65280;BME280;51878;55.748;48.742;2024-03-07T18:40:58;98964.34;;;-4.40;76.67
65280;BME280;51878;55.748;48.742;2024-03-07T18:46:00;98957.91;;;-4.36;76.42
65280;BME280;51878;55.748;48.742;2024-03-07T18:51:05;98974.63;;;-4.22;75.79
65280;BME280;51878;55.748;48.742;2024-03-07T18:56:08;98972.50;;;-4.17;75.05
65280;BME280;51878;55.748;48.742;2024-03-07T19:01:13;98949.22;;;-4.25;75.87
65280;BME280;51878;55.748;48.742;2024-03-07T19:06:16;98904.22;;;-4.50;75.85
65280;BME280;51878;55.748;48.742;2024-03-07T19:11:18;98944.78;;;-4.24;75.69
65280;BME280;51878;55.748;48.742;2024-03-07T19:16:21;98881.91;;;-4.59;74.60
65280;BME280;51878;55.748;48.742;2024-03-07T19:21:23;98935.25;;;-4.27;75.34
65280;BME280;51878;55.748;48.742;2024-03-07T19:26:26;98927.31;;;-4.27;74.22
65280;BME280;51878;55.748;48.742;2024-03-07T19:31:28;98900.75;;;-4.38;73.75
65280;BME280;51878;55.748;48.742;2024-03-07T19:36:36;98885.63;;;-4.49;73.00
65280;BME280;51878;55.748;48.742;2024-03-07T19:41:41;98898.41;;;-4.30;72.78
65280;BME280;51878;55.748;48.742;2024-03-07T19:46:53;98890.91;;;-4.36;73.10
65280;BME280;51878;55.748;48.742;2024-03-07T19:51:55;98834.00;;;-4.67;73.80
65280;BME280;51878;55.748;48.742;2024-03-07T19:56:58;98847.22;;;-4.54;71.96
65280;BME280;51878;55.748;48.742;2024-03-07T20:02:06;98851.16;;;-4.47;71.45
65280;BME280;51878;55.748;48.742;2024-03-07T20:07:08;98871.53;;;-4.37;72.10
65280;BME280;51878;55.748;48.742;2024-03-07T20:12:12;98871.25;;;-4.32;71.33
65280;BME280;51878;55.748;48.742;2024-03-07T20:17:18;98858.31;;;-4.37;71.10
65280;BME280;51878;55.748;48.742;2024-03-07T20:22:20;98774.13;;;-4.81;70.70
65280;BME280;51878;55.748;48.742;2024-03-07T20:27:22;98828.06;;;-4.45;71.31
65280;BME280;51878;55.748;48.742;2024-03-07T20:32:25;98822.56;;;-4.42;70.78
65280;BME280;51878;55.748;48.742;2024-03-07T20:37:27;98838.00;;;-4.36;71.07
65280;BME280;51878;55.748;48.742;2024-03-07T20:42:30;98829.63;;;-4.30;71.64
65280;BME280;51878;55.748;48.742;2024-03-07T20:47:32;98832.16;;;-4.28;71.37
65280;BME280;51878;55.748;48.742;2024-03-07T20:52:39;98816.28;;;-4.28;71.73
65280;BME280;51878;55.748;48.742;2024-03-07T20:57:46;98719.91;;;-4.87;72.10
65280;BME280;51878;55.748;48.742;2024-03-07T21:02:52;98774.03;;;-4.54;72.65
65280;BME280;51878;55.748;48.742;2024-03-07T21:07:57;98768.09;;;-4.58;72.62
65280;BME280;51878;55.748;48.742;2024-03-07T21:13:00;98793.22;;;-4.39;73.50
65280;BME280;51878;55.748;48.742;2024-03-07T21:18:03;98787.19;;;-4.41;73.26
65280;BME280;51878;55.748;48.742;2024-03-07T21:23:10;98659.91;;;-5.23;73.02
65280;BME280;51878;55.748;48.742;2024-03-07T21:28:15;98676.81;;;-5.13;72.29
65280;BME280;51878;55.748;48.742;2024-03-07T21:33:17;98770.75;;;-4.58;72.76
65280;BME280;51878;55.748;48.742;2024-03-07T21:38:19;98773.38;;;-4.45;72.35
65280;BME280;51878;55.748;48.742;2024-03-07T21:43:21;98770.50;;;-4.54;72.97
65280;BME280;51878;55.748;48.742;2024-03-07T21:48:27;98663.59;;;-5.13;72.23
65280;BME280;51878;55.748;48.742;2024-03-07T21:53:30;98759.00;;;-4.53;73.03
65280;BME280;51878;55.748;48.742;2024-03-07T21:58:32;98756.13;;;-4.50;74.58
65280;BME280;51878;55.748;48.742;2024-03-07T22:03:34;98710.81;;;-4.83;74.43
65280;BME280;51878;55.748;48.742;2024-03-07T22:08:37;98703.72;;;-4.82;73.40
65280;BME280;51878;55.748;48.742;2024-03-07T22:13:39;98713.88;;;-4.76;73.20
65280;BME280;51878;55.748;48.742;2024-03-07T22:18:42;98691.25;;;-4.93;72.97
65280;BME280;51878;55.748;48.742;2024-03-07T22:23:44;98726.78;;;-4.71;72.89
65280;BME280;51878;55.748;48.742;2024-03-07T22:28:46;98721.34;;;-4.70;72.97
65280;BME280;51878;55.748;48.742;2024-03-07T22:33:50;98712.91;;;-4.75;73.50
65280;BME280;51878;55.748;48.742;2024-03-07T22:38:52;98678.88;;;-4.80;73.97
65280;BME280;51878;55.748;48.742;2024-03-07T22:43:54;98665.34;;;-4.88;74.87
65280;BME280;51878;55.748;48.742;2024-03-07T22:48:56;98597.66;;;-5.27;75.89
65280;BME280;51878;55.748;48.742;2024-03-07T22:53:59;98630.81;;;-4.97;76.64
65280;BME280;51878;55.748;48.742;2024-03-07T22:59:02;98655.81;;;-4.78;77.20
65280;BME280;51878;55.748;48.742;2024-03-07T23:04:05;98641.06;;;-4.93;77.18
65280;BME280;51878;55.748;48.742;2024-03-07T23:09:07;98621.84;;;-5.08;78.12
65280;BME280;51878;55.748;48.742;2024-03-07T23:14:10;98655.19;;;-4.94;78.85
65280;BME280;51878;55.748;48.742;2024-03-07T23:19:15;98602.09;;;-5.28;79.25
65280;BME280;51878;55.748;48.742;2024-03-07T23:24:18;98636.22;;;-5.12;79.48
65280;BME280;51878;55.748;48.742;2024-03-07T23:29:21;98635.19;;;-5.22;79.99
65280;BME280;51878;55.748;48.742;2024-03-07T23:34:23;98600.78;;;-5.46;79.87
65280;BME280;51878;55.748;48.742;2024-03-07T23:39:25;98624.31;;;-5.30;80.36
65280;BME280;51878;55.748;48.742;2024-03-07T23:44:27;98625.06;;;-5.41;79.94
65280;BME280;51878;55.748;48.742;2024-03-07T23:49:30;98622.00;;;-5.35;80.01
65280;BME280;51878;55.748;48.742;2024-03-07T23:54:32;98545.34;;;-5.72;80.36
65280;BME280;51878;55.748;48.742;2024-03-07T23:59:34;98534.88;;;-5.73;80.24
